createdAt,value
2019-01-15T00:02:23.648Z,8.60
2019-01-15T00:04:50.871Z,8.33
2019-01-15T00:07:18.129Z,9.97
2019-01-15T00:09:45.328Z,8.43
2019-01-15T00:12:12.563Z,7.73
2019-01-15T00:14:39.811Z,7.90
2019-01-15T00:17:07.008Z,9.97
2019-01-15T00:19:34.217Z,5.20
2019-01-15T00:22:01.469Z,6.57
2019-01-15T00:24:28.680Z,11.83
2019-01-15T00:26:55.922Z,10.80
2019-01-15T00:29:23.192Z,9.93
2019-01-15T00:31:50.429Z,5.83
2019-01-15T00:34:17.628Z,7.23
2019-01-15T00:36:44.934Z,6.40
2019-01-15T00:39:12.118Z,10.70
2019-01-15T00:41:39.325Z,7.87
2019-01-15T00:44:06.560Z,7.00
2019-01-15T00:46:33.769Z,11.13
2019-01-15T00:49:00.986Z,7.17
2019-01-15T00:51:28.235Z,7.33
2019-01-15T00:53:55.451Z,9.53
2019-01-15T00:56:22.669Z,7.17
2019-01-15T00:58:49.922Z,5.27
2019-01-15T01:01:17.160Z,4.50
2019-01-15T01:03:44.676Z,5.53
2019-01-15T01:06:11.878Z,8.50
2019-01-15T01:08:39.082Z,6.00
2019-01-15T01:11:07.231Z,5.33
2019-01-15T01:13:34.448Z,6.43
2019-01-15T01:16:01.702Z,7.60
2019-01-15T01:18:28.906Z,5.30
2019-01-15T01:20:56.167Z,11.63
2019-01-15T01:23:23.454Z,7.23
2019-01-15T01:25:50.669Z,7.13
2019-01-15T01:28:17.959Z,5.63
2019-01-15T01:30:45.392Z,7.13
2019-01-15T01:33:12.635Z,8.40
2019-01-15T01:35:40.185Z,16.07
2019-01-15T01:38:07.424Z,8.40
2019-01-15T01:40:34.649Z,9.00
2019-01-15T01:43:01.937Z,10.37
2019-01-15T01:45:29.143Z,9.50
2019-01-15T01:47:56.388Z,6.03
2019-01-15T01:50:23.603Z,9.67
2019-01-15T01:52:51.916Z,10.13
2019-01-15T01:55:19.168Z,4.20
2019-01-15T01:57:46.429Z,5.37
2019-01-15T02:00:18.243Z,5.57
2019-01-15T02:02:45.539Z,3.13
2019-01-15T02:05:12.944Z,5.43
2019-01-15T02:07:40.224Z,3.53
2019-01-15T02:10:09.803Z,5.83
2019-01-15T02:12:37.238Z,3.90
2019-01-15T02:15:05.763Z,4.80
2019-01-15T02:17:33.016Z,5.00
2019-01-15T02:20:00.262Z,5.83
2019-01-15T02:22:27.486Z,5.30
2019-01-15T02:24:54.835Z,7.00
2019-01-15T02:27:22.907Z,5.07
2019-01-15T02:29:50.176Z,6.53
2019-01-15T02:32:17.388Z,6.13
2019-01-15T02:34:44.663Z,4.87
2019-01-15T02:37:11.942Z,6.03
2019-01-15T02:39:39.361Z,5.17
2019-01-15T02:42:06.597Z,3.63
2019-01-15T02:44:34.043Z,4.47
2019-01-15T02:47:01.270Z,5.23
2019-01-15T02:49:28.521Z,4.83
2019-01-15T02:51:55.837Z,5.43
2019-01-15T02:54:23.046Z,3.23
2019-01-15T02:56:50.358Z,3.37
2019-01-15T02:59:17.684Z,5.57
2019-01-15T03:01:44.913Z,5.50
2019-01-15T03:04:12.177Z,2.83
2019-01-15T03:06:39.390Z,2.50
2019-01-15T03:09:09.308Z,3.47
2019-01-15T03:11:36.738Z,6.83
2019-01-15T03:14:04.154Z,7.17
2019-01-15T03:16:31.395Z,3.00
2019-01-15T03:18:58.672Z,4.60
2019-01-15T03:21:25.947Z,2.60
2019-01-15T03:23:53.140Z,5.87
2019-01-15T03:26:20.381Z,8.93
2019-01-15T03:28:47.606Z,4.23
2019-01-15T03:31:14.943Z,5.80
2019-01-15T03:33:42.266Z,3.80
2019-01-15T03:36:09.487Z,3.83
2019-01-15T03:38:37.119Z,6.17
2019-01-15T03:41:04.348Z,5.97
2019-01-15T03:43:31.564Z,4.13
2019-01-15T03:46:04.248Z,4.40
2019-01-15T03:48:27.955Z,2.83
2019-01-15T03:50:55.151Z,3.77
2019-01-15T03:53:22.421Z,4.63
2019-01-15T03:55:49.671Z,6.47
2019-01-15T03:58:16.904Z,5.60
2019-01-15T04:00:44.186Z,3.53
2019-01-15T04:03:11.418Z,2.60
2019-01-15T04:05:38.681Z,6.63
2019-01-15T04:08:06.002Z,4.17
2019-01-15T04:10:33.248Z,4.70
2019-01-15T04:13:00.469Z,5.03
2019-01-15T04:15:27.738Z,5.93
2019-01-15T04:17:55.059Z,5.40
2019-01-15T04:20:23.490Z,5.57
2019-01-15T04:22:50.731Z,8.60
2019-01-15T04:25:17.953Z,6.93
2019-01-15T04:27:45.174Z,4.73
2019-01-15T04:30:17.398Z,5.40
2019-01-15T04:32:44.818Z,7.17
2019-01-15T04:35:12.381Z,8.13
2019-01-15T04:37:39.618Z,5.63
2019-01-15T04:40:09.250Z,7.30
2019-01-15T04:42:36.466Z,7.63
2019-01-15T04:45:04.597Z,5.10
2019-01-15T04:47:31.814Z,6.73
2019-01-15T04:49:59.296Z,7.90
2019-01-15T04:52:27.086Z,8.23
2019-01-15T04:54:54.284Z,11.37
2019-01-15T04:57:21.822Z,5.47
2019-01-15T04:59:50.772Z,9.67
2019-01-15T05:02:18.654Z,13.33
2019-01-15T05:04:46.036Z,6.20
2019-01-15T05:07:13.234Z,7.57
2019-01-15T05:09:40.485Z,10.43
2019-01-15T05:12:08.013Z,11.87
2019-01-15T05:14:35.263Z,6.60
2019-01-15T05:17:02.649Z,10.67
2019-01-15T05:19:29.862Z,9.20
2019-01-15T05:21:57.102Z,8.93
2019-01-15T05:24:24.349Z,8.57
2019-01-15T05:26:51.588Z,12.17
2019-01-15T05:29:18.863Z,12.73
2019-01-15T05:31:46.172Z,15.73
2019-01-15T05:34:13.942Z,13.93
2019-01-15T05:36:41.184Z,13.93
2019-01-15T05:39:08.527Z,16.43
2019-01-15T05:41:35.799Z,15.33
2019-01-15T05:44:03.236Z,11.73
2019-01-15T05:46:30.461Z,13.63
2019-01-15T05:48:57.742Z,18.80
2019-01-15T05:51:32.196Z,12.10
2019-01-15T05:53:59.447Z,17.00
2019-01-15T05:56:26.673Z,19.00
2019-01-15T05:58:53.887Z,16.17
2019-01-15T06:01:21.159Z,13.57
2019-01-15T06:03:48.378Z,15.67
2019-01-15T06:06:15.601Z,10.87
2019-01-15T06:08:42.896Z,16.40
2019-01-15T06:11:10.147Z,20.93
2019-01-15T06:13:42.658Z,15.37
2019-01-15T06:16:06.504Z,15.40
2019-01-15T06:18:33.769Z,18.00
2019-01-15T06:21:01.015Z,18.53
2019-01-15T06:23:29.957Z,14.43
2019-01-15T06:25:57.249Z,20.43
2019-01-15T06:28:25.076Z,15.90
2019-01-15T06:30:52.638Z,18.87
2019-01-15T06:33:19.914Z,15.40
2019-01-15T06:35:47.160Z,22.00
2019-01-15T06:38:14.383Z,15.60
2019-01-15T06:40:41.607Z,14.87
2019-01-15T06:43:08.885Z,18.00
2019-01-15T06:45:36.392Z,22.67
2019-01-15T06:48:04.203Z,16.87
2019-01-15T06:50:31.834Z,19.00
2019-01-15T06:52:59.064Z,14.00
2019-01-15T06:55:26.370Z,16.23
2019-01-15T06:57:54.161Z,20.13
2019-01-15T07:00:26.443Z,18.53
2019-01-15T07:02:53.805Z,16.93
2019-01-15T07:05:21.030Z,16.17
2019-01-15T07:07:48.281Z,18.87
2019-01-15T07:10:21.177Z,20.73
2019-01-15T07:12:48.500Z,19.70
2019-01-15T07:15:15.888Z,20.53
2019-01-15T07:17:43.137Z,17.07
2019-01-15T07:20:11.615Z,17.57
2019-01-15T07:22:38.857Z,16.90
2019-01-15T07:25:08.528Z,17.47
2019-01-15T07:27:35.759Z,12.20
2019-01-15T07:30:04.467Z,12.57
2019-01-15T07:32:31.727Z,14.40
2019-01-15T07:34:59.103Z,12.43
2019-01-15T07:37:26.330Z,15.23
2019-01-15T07:39:53.592Z,19.10
2019-01-15T07:42:20.832Z,16.40
2019-01-15T07:44:48.064Z,22.37
2019-01-15T07:47:15.343Z,17.60
2019-01-15T07:49:42.701Z,13.17
2019-01-15T07:52:09.918Z,11.53
2019-01-15T07:54:37.166Z,11.27
2019-01-15T07:57:04.607Z,17.27
2019-01-15T07:59:31.846Z,12.80
2019-01-15T08:01:59.089Z,15.70
2019-01-15T08:04:26.664Z,8.50
2019-01-15T08:06:53.878Z,14.53
2019-01-15T08:09:21.090Z,16.63
2019-01-15T08:11:48.346Z,16.00
2019-01-15T08:14:15.761Z,16.73
2019-01-15T08:16:43.124Z,16.43
2019-01-15T08:19:10.387Z,14.90
2019-01-15T08:21:37.923Z,13.00
2019-01-15T08:24:05.183Z,16.73
2019-01-15T08:26:33.378Z,17.60
2019-01-15T08:29:00.665Z,19.93
2019-01-15T08:31:27.962Z,12.73
2019-01-15T08:33:55.488Z,20.20
2019-01-15T08:36:22.712Z,17.27
2019-01-15T08:38:49.931Z,16.17
2019-01-15T08:41:17.196Z,14.30
2019-01-15T08:43:44.666Z,12.10
2019-01-15T08:46:11.929Z,16.57
2019-01-15T08:48:39.871Z,14.73
2019-01-15T08:51:08.527Z,15.03
2019-01-15T08:53:36.190Z,13.90
2019-01-15T08:56:04.464Z,18.10
2019-01-15T08:58:31.754Z,16.10
2019-01-15T09:00:59.086Z,10.77
2019-01-15T09:03:26.346Z,13.00
2019-01-15T09:05:53.829Z,11.83
2019-01-15T09:08:21.082Z,14.47
2019-01-15T09:10:48.627Z,17.33
2019-01-15T09:13:15.977Z,14.80
2019-01-15T09:15:43.550Z,14.73
2019-01-15T09:18:10.769Z,12.13
2019-01-15T09:20:38.016Z,18.33
2019-01-15T09:23:05.240Z,15.73
2019-01-15T09:25:32.592Z,17.63
2019-01-15T09:27:59.822Z,17.30
2019-01-15T09:30:27.043Z,15.30
2019-01-15T09:32:54.586Z,11.43
2019-01-15T09:35:21.820Z,18.67
2019-01-15T09:37:50.093Z,14.80
2019-01-15T09:40:19.316Z,14.87
2019-01-15T09:42:46.544Z,16.80
2019-01-15T09:45:15.566Z,15.27
2019-01-15T09:47:52.670Z,13.73
2019-01-15T09:50:19.996Z,14.33
2019-01-15T09:52:47.352Z,17.00
2019-01-15T09:55:14.604Z,16.97
2019-01-15T09:57:41.892Z,16.90
2019-01-15T10:00:09.308Z,12.20
2019-01-15T10:02:36.672Z,17.47
2019-01-15T10:05:04.523Z,17.00
2019-01-15T10:07:31.829Z,8.90
2019-01-15T10:09:59.094Z,13.13
2019-01-15T10:12:26.461Z,16.50
2019-01-15T10:14:53.701Z,12.47
2019-01-15T10:17:20.927Z,15.97
2019-01-15T10:19:48.367Z,14.63
2019-01-15T10:22:16.221Z,15.23
2019-01-15T10:24:43.559Z,16.70
2019-01-15T10:27:11.733Z,20.33
2019-01-15T10:29:39.324Z,19.00
2019-01-15T10:32:51.596Z,14.33
2019-01-15T10:35:51.404Z,14.40
2019-01-15T10:38:19.033Z,12.57
2019-01-15T10:40:46.964Z,13.83
2019-01-15T10:43:14.169Z,17.90
2019-01-15T10:45:43.623Z,14.00
2019-01-15T10:48:10.844Z,18.13
2019-01-15T10:50:38.242Z,11.60
2019-01-15T10:53:05.584Z,13.00
2019-01-15T10:55:32.869Z,18.87
2019-01-15T10:58:00.077Z,14.93
2019-01-15T11:00:27.340Z,15.60
2019-01-15T11:02:54.888Z,16.27
2019-01-15T11:05:22.151Z,14.57
2019-01-15T11:07:49.413Z,13.37
2019-01-15T11:10:16.782Z,9.30
2019-01-15T11:12:44.033Z,9.80
2019-01-15T11:15:11.805Z,11.20
2019-01-15T11:17:39.071Z,19.27
2019-01-15T11:20:08.657Z,13.17
2019-01-15T11:22:35.914Z,17.57
2019-01-15T11:25:05.390Z,12.53
2019-01-15T11:27:32.656Z,11.30
2019-01-15T11:29:59.884Z,14.87
2019-01-15T11:32:27.294Z,12.50
2019-01-15T11:34:54.645Z,13.83
2019-01-15T11:37:21.997Z,18.63
2019-01-15T11:39:49.314Z,12.53
2019-01-15T11:42:16.556Z,10.67
2019-01-15T11:44:43.828Z,13.50
2019-01-15T11:47:11.080Z,15.10
2019-01-15T11:49:38.346Z,16.17
2019-01-15T11:52:05.580Z,10.67
2019-01-15T11:54:32.809Z,19.80
2019-01-15T11:57:00.195Z,14.07
2019-01-15T11:59:27.915Z,11.87
2019-01-15T12:02:13.983Z,9.03
2019-01-15T12:05:03.425Z,11.53
2019-01-15T12:07:48.915Z,13.07
2019-01-15T12:10:42.015Z,12.63
2019-01-15T12:13:27.486Z,12.83
2019-01-15T12:16:23.238Z,8.07
2019-01-15T12:19:01.483Z,11.23
2019-01-15T12:21:57.754Z,10.63
2019-01-15T12:24:53.195Z,13.90
2019-01-15T12:27:38.381Z,12.27
2019-01-15T12:30:30.496Z,7.57
2019-01-15T12:33:16.357Z,14.13
2019-01-15T12:36:05.988Z,10.07
2019-01-15T12:39:08.101Z,12.07
2019-01-15T12:41:46.698Z,10.90
2019-01-15T12:44:40.639Z,14.80
2019-01-15T12:47:28.697Z,11.83
2019-01-15T12:50:24.429Z,15.40
2019-01-15T12:53:23.455Z,13.20
2019-01-15T12:56:13.140Z,15.73
2019-01-15T12:58:59.142Z,12.17
2019-01-15T13:01:58.115Z,16.20
2019-01-15T13:04:47.984Z,16.77
2019-01-15T13:07:33.409Z,14.97
2019-01-15T13:10:36.752Z,10.40
2019-01-15T13:13:34.995Z,15.73
2019-01-15T13:16:21.741Z,11.43
2019-01-15T13:19:26.567Z,11.30
2019-01-15T13:22:11.511Z,8.53
2019-01-15T13:24:58.305Z,13.00
2019-01-15T13:27:44.241Z,13.03
2019-01-15T13:30:32.971Z,15.57
2019-01-15T13:33:36.875Z,13.93
2019-01-15T13:36:37.313Z,10.53
2019-01-15T13:39:18.952Z,14.00
2019-01-15T13:42:04.450Z,20.77
2019-01-15T13:44:53.619Z,13.57
2019-01-15T13:47:56.595Z,13.67
2019-01-15T13:50:43.383Z,17.90
2019-01-15T13:53:38.933Z,13.20
2019-01-15T13:56:24.559Z,9.77
2019-01-15T13:59:10.752Z,12.73
2019-01-15T14:01:58.971Z,15.80
2019-01-15T14:04:49.129Z,13.37
2019-01-15T14:07:38.543Z,14.43
2019-01-15T14:10:30.051Z,15.47
2019-01-15T14:13:21.445Z,16.70
2019-01-15T14:16:11.253Z,12.60
2019-01-15T14:19:12.917Z,9.13
2019-01-15T14:21:58.229Z,15.73
2019-01-15T14:24:50.850Z,18.30
2019-01-15T14:27:49.312Z,14.10
2019-01-15T14:30:30.479Z,15.33
2019-01-15T14:33:12.518Z,14.77
2019-01-15T14:35:47.893Z,16.97
2019-01-15T14:38:50.406Z,13.07
2019-01-15T14:41:40.068Z,17.13
2019-01-15T14:44:25.849Z,14.03
2019-01-15T14:47:30.847Z,19.47
2019-01-15T14:50:17.618Z,19.73
2019-01-15T14:53:02.947Z,18.77
2019-01-15T14:55:47.969Z,18.10
2019-01-15T14:58:40.533Z,16.60
2019-01-15T15:01:33.638Z,19.60
2019-01-15T15:04:29.423Z,19.33
2019-01-15T15:07:22.160Z,11.67
2019-01-15T15:10:09.340Z,11.60
2019-01-15T15:12:55.072Z,21.23
2019-01-15T15:15:41.944Z,14.73
2019-01-15T15:18:37.950Z,16.40
2019-01-15T15:21:23.205Z,14.03
2019-01-15T15:23:58.091Z,11.60
2019-01-15T15:27:03.159Z,15.27
2019-01-15T15:29:42.603Z,16.20
2019-01-15T15:32:32.335Z,14.97
2019-01-15T15:35:17.808Z,17.40
2019-01-15T15:38:03.359Z,16.40
2019-01-15T15:40:48.707Z,18.83
2019-01-15T15:43:47.479Z,17.50
2019-01-15T15:46:39.922Z,15.73
2019-01-15T15:49:25.656Z,15.23
2019-01-15T15:52:21.050Z,15.10
2019-01-15T15:55:06.581Z,11.90
2019-01-15T15:57:52.060Z,17.33
2019-01-15T16:00:39.145Z,14.97
2019-01-15T16:03:24.937Z,14.70
2019-01-15T16:06:16.916Z,11.77
2019-01-15T16:09:15.853Z,14.83
2019-01-15T16:12:05.889Z,13.73
2019-01-15T16:15:08.077Z,14.17
2019-01-15T16:17:57.957Z,13.87
2019-01-15T16:20:56.672Z,12.93
2019-01-15T16:23:33.388Z,19.37
2019-01-15T16:26:26.307Z,13.53
2019-01-15T16:29:25.503Z,18.70
2019-01-15T16:32:02.721Z,14.87
2019-01-15T16:34:52.678Z,18.20
2019-01-15T16:37:42.148Z,13.47
2019-01-15T16:40:23.893Z,13.53
2019-01-15T16:43:11.018Z,16.53
2019-01-15T16:45:56.560Z,20.00
2019-01-15T16:48:49.120Z,15.87
2019-01-15T16:51:35.926Z,14.37
2019-01-15T16:54:21.476Z,12.57
2019-01-15T16:57:06.969Z,15.47
2019-01-15T17:00:08.932Z,14.57
2019-01-15T17:03:04.971Z,16.40
2019-01-15T17:05:55.025Z,13.87
2019-01-15T17:08:41.585Z,16.00
2019-01-15T17:11:28.340Z,16.37
2019-01-15T17:14:14.889Z,11.23
2019-01-15T17:17:00.903Z,19.27
2019-01-15T17:19:41.924Z,13.70
2019-01-15T17:22:46.967Z,19.67
2019-01-15T17:25:36.577Z,12.73
2019-01-15T17:28:20.064Z,13.97
2019-01-15T17:31:15.239Z,16.63
2019-01-15T17:34:01.247Z,16.93
2019-01-15T17:36:53.865Z,13.57
2019-01-15T17:39:39.521Z,21.77
2019-01-15T17:42:44.679Z,14.77
2019-01-15T17:45:46.500Z,15.37
2019-01-15T17:48:35.067Z,14.27
2019-01-15T17:51:21.894Z,16.87
2019-01-15T17:54:02.412Z,12.70
2019-01-15T17:56:50.824Z,15.67
2019-01-15T17:59:36.476Z,12.57
2019-01-15T18:02:35.082Z,12.10
2019-01-15T18:05:42.075Z,16.93
2019-01-15T18:08:21.452Z,11.20
2019-01-15T18:11:23.266Z,13.10
2019-01-15T18:14:08.726Z,11.17
2019-01-15T18:17:01.899Z,20.47
2019-01-15T18:19:47.035Z,13.27
2019-01-15T18:22:23.707Z,12.13
2019-01-15T18:25:01.492Z,14.37
2019-01-15T18:27:59.586Z,17.27
2019-01-15T18:30:59.647Z,13.73
2019-01-15T18:33:48.880Z,16.23
2019-01-15T18:36:41.322Z,13.17
2019-01-15T18:39:40.428Z,15.27
2019-01-15T18:42:36.095Z,13.07
2019-01-15T18:45:28.223Z,13.67
2019-01-15T18:48:08.233Z,12.63
2019-01-15T18:50:53.477Z,15.33
2019-01-15T18:53:46.137Z,14.77
2019-01-15T18:56:31.435Z,18.07
2019-01-15T18:59:24.426Z,11.03
2019-01-15T19:02:10.114Z,11.33
2019-01-15T19:05:12.114Z,10.67
2019-01-15T19:08:11.822Z,17.80
2019-01-15T19:10:57.939Z,18.77
2019-01-15T19:13:38.501Z,15.30
2019-01-15T19:16:25.629Z,9.63
2019-01-15T19:19:12.052Z,15.67
2019-01-15T19:21:49.200Z,13.27
2019-01-15T19:24:36.047Z,10.37
2019-01-15T19:27:28.649Z,14.03
2019-01-15T19:30:23.622Z,18.20
2019-01-15T19:33:09.056Z,13.63
2019-01-15T19:35:54.724Z,20.23
2019-01-15T19:38:32.012Z,12.33
2019-01-15T19:41:29.020Z,15.30
2019-01-15T19:44:14.246Z,16.13
2019-01-15T19:46:53.579Z,11.50
2019-01-15T19:49:52.260Z,10.00
2019-01-15T19:52:37.048Z,13.73
2019-01-15T19:55:29.127Z,11.40
2019-01-15T19:58:05.103Z,10.23
2019-01-15T20:00:57.739Z,11.67
2019-01-15T20:03:43.225Z,13.07
2019-01-15T20:06:28.229Z,11.07
2019-01-15T20:09:30.098Z,13.67
2019-01-15T20:12:26.219Z,10.33
2019-01-15T20:15:13.868Z,10.53
2019-01-15T20:18:12.618Z,8.67
2019-01-15T20:20:55.564Z,8.03
2019-01-15T20:23:47.054Z,9.93
2019-01-15T20:26:22.553Z,8.57
2019-01-15T20:29:18.668Z,12.30
2019-01-15T20:32:08.053Z,8.67
2019-01-15T20:34:50.192Z,9.03
2019-01-15T20:37:28.402Z,10.33
2019-01-15T20:40:27.262Z,8.47
2019-01-15T20:43:19.685Z,11.87
2019-01-15T20:46:25.231Z,10.87
2019-01-15T20:49:06.632Z,9.30
2019-01-15T20:51:51.886Z,9.80
2019-01-15T20:54:38.959Z,10.57
2019-01-15T20:57:24.868Z,10.13
2019-01-15T21:00:14.384Z,7.17
2019-01-15T21:03:01.272Z,9.90
2019-01-15T21:05:42.869Z,9.67
2019-01-15T21:08:35.504Z,9.93
2019-01-15T21:11:14.684Z,7.77
2019-01-15T21:14:04.299Z,12.40
2019-01-15T21:16:52.618Z,11.20
2019-01-15T21:19:42.071Z,10.20
2019-01-15T21:22:27.502Z,10.93
2019-01-15T21:25:06.280Z,9.03
2019-01-15T21:28:05.150Z,10.53
2019-01-15T21:31:04.060Z,9.47
2019-01-15T21:33:50.879Z,8.77
2019-01-15T21:36:37.697Z,10.20
2019-01-15T21:39:34.221Z,11.50
2019-01-15T21:42:32.904Z,9.57
2019-01-15T21:45:28.106Z,12.33
2019-01-15T21:48:17.474Z,11.53
2019-01-15T21:51:04.638Z,10.33
2019-01-15T21:53:50.261Z,10.67
2019-01-15T21:56:27.943Z,14.70
2019-01-15T21:59:13.525Z,8.77
2019-01-15T22:02:18.662Z,8.53
2019-01-15T22:05:04.589Z,14.27
2019-01-15T22:07:40.896Z,14.70
2019-01-15T22:10:31.890Z,9.90
2019-01-15T22:13:24.466Z,13.90
2019-01-15T22:16:10.006Z,14.80
2019-01-15T22:19:08.801Z,16.73
2019-01-15T22:21:55.596Z,18.10
2019-01-15T22:24:41.026Z,15.77
2019-01-15T22:27:36.286Z,16.00
2019-01-15T22:30:23.407Z,18.77
2019-01-15T22:33:10.207Z,15.47
2019-01-15T22:35:55.683Z,15.37
2019-01-15T22:38:41.047Z,13.87
2019-01-15T22:41:17.402Z,14.03
2019-01-15T22:43:59.110Z,17.27
2019-01-15T22:46:44.976Z,16.13
2019-01-15T22:49:37.394Z,15.93
2019-01-15T22:52:23.123Z,14.13
2019-01-15T22:55:18.789Z,15.40
2019-01-15T22:58:05.614Z,11.23
2019-01-15T23:01:09.496Z,12.10
2019-01-15T23:04:05.140Z,12.10
2019-01-15T23:06:50.507Z,20.27
2019-01-15T23:09:39.868Z,14.90
2019-01-15T23:12:26.668Z,11.47
2019-01-15T23:15:19.160Z,12.17
2019-01-15T23:18:18.704Z,12.10
2019-01-15T23:21:09.653Z,18.00
2019-01-15T23:23:52.335Z,16.27
2019-01-15T23:26:37.651Z,15.93
2019-01-15T23:29:18.291Z,12.07
2019-01-15T23:32:08.131Z,14.27
2019-01-15T23:34:45.453Z,13.80
2019-01-15T23:37:50.676Z,14.73
2019-01-15T23:40:36.508Z,19.17
2019-01-15T23:43:21.978Z,13.47
2019-01-15T23:46:02.361Z,19.43
2019-01-15T23:49:01.235Z,14.67
2019-01-15T23:51:59.979Z,15.30
2019-01-15T23:54:58.974Z,13.93
2019-01-15T23:57:43.147Z,15.13
